Time;durP1;ratioP1;P1;durP2;ratioP2;P2;SDS_P1;SDS_P2;PMS_P1;PMS_P2;Temp;Humidity;BMP_temperature;BMP_pressure;BME280_temperature;BME280_humidity;BME280_pressure;Samples;Min_cycle;Max_cycle;Signal;HPM_P1;HPM_P2
2024/01/02 00:01:23;;;;;;;38.13;23.00;;;;;;;;;;6184866;23;20025;-72
2024/01/02 00:03:50;;;;;;;37.10;23.23;;;;;;;;;;6185222;23;20084;-72
2024/01/02 00:06:18;;;;;;;38.50;22.50;;;;;;;;;;6183370;23;20100;-72
2024/01/02 00:08:46;;;;;;;37.17;21.27;;;;;;;;;;6184620;23;20013;-72
2024/01/02 00:11:14;;;;;;;34.40;21.83;;;;;;;;;;6184836;23;20068;-72
2024/01/02 00:13:42;;;;;;;33.03;21.38;;;;;;;;;;6185061;23;20021;-72
2024/01/02 00:16:09;;;;;;;36.30;22.20;;;;;;;;;;6184876;23;20391;-72
2024/01/02 00:18:37;;;;;;;34.00;20.23;;;;;;;;;;6184873;23;20028;-72
2024/01/02 00:21:05;;;;;;;35.17;22.25;;;;;;;;;;6184634;23;20025;-72
2024/01/02 00:23:32;;;;;;;30.95;20.58;;;;;;;;;;6184765;23;20017;-72
2024/01/02 00:26:00;;;;;;;31.90;19.95;;;;;;;;;;6183183;23;20067;-72
2024/01/02 00:28:27;;;;;;;32.97;20.63;;;;;;;;;;6184545;23;20021;-73
2024/01/02 00:30:55;;;;;;;32.38;19.73;;;;;;;;;;6183233;23;20021;-73
2024/01/02 00:33:22;;;;;;;32.65;19.55;;;;;;;;;;6183498;23;20021;-72
2024/01/02 00:35:50;;;;;;;30.88;18.50;;;;;;;;;;6183555;23;20088;-72
2024/01/02 00:38:19;;;;;;;32.78;18.08;;;;;;;;;;6183154;23;20017;-72
2024/01/02 00:40:47;;;;;;;27.42;19.05;;;;;;;;;;6183139;23;20025;-72
2024/01/02 00:43:14;;;;;;;29.70;18.30;;;;;;;;;;6183084;23;20025;-72
2024/01/02 00:45:42;;;;;;;28.90;18.52;;;;;;;;;;6183100;23;20048;-72
2024/01/02 00:48:10;;;;;;;28.48;17.35;;;;;;;;;;6183019;23;20025;-72
2024/01/02 00:50:37;;;;;;;28.83;17.25;;;;;;;;;;6184581;23;20539;-72
2024/01/02 00:53:05;;;;;;;29.42;17.05;;;;;;;;;;6183200;23;20025;-72
2024/01/02 00:55:33;;;;;;;25.40;16.42;;;;;;;;;;6184349;23;20025;-72
2024/01/02 00:58:01;;;;;;;26.38;15.95;;;;;;;;;;6184713;23;20099;-72
2024/01/02 01:00:28;;;;;;;24.77;15.80;;;;;;;;;;6183034;23;20073;-72
2024/01/02 01:02:56;;;;;;;23.45;14.80;;;;;;;;;;6184625;23;20371;-72
2024/01/02 01:05:23;;;;;;;23.25;15.55;;;;;;;;;;6182742;23;20031;-72
2024/01/02 01:07:51;;;;;;;23.92;13.90;;;;;;;;;;6184442;23;20450;-72
2024/01/02 01:10:19;;;;;;;21.92;14.63;;;;;;;;;;6184670;23;20458;-72
2024/01/02 01:12:46;;;;;;;20.73;13.23;;;;;;;;;;6183040;23;20079;-72
2024/01/02 01:15:14;;;;;;;19.13;12.68;;;;;;;;;;6184884;23;20021;-72
2024/01/02 01:17:41;;;;;;;20.52;11.80;;;;;;;;;;6184757;23;20024;-72
2024/01/02 01:20:10;;;;;;;20.65;12.35;;;;;;;;;;6186617;23;20017;-71
2024/01/02 01:22:37;;;;;;;17.40;11.63;;;;;;;;;;6184679;23;20044;-72
2024/01/02 01:25:05;;;;;;;16.90;11.40;;;;;;;;;;6184712;23;20351;-72
2024/01/02 01:27:32;;;;;;;17.05;11.45;;;;;;;;;;6184522;23;20355;-72
2024/01/02 01:30:00;;;;;;;16.48;11.20;;;;;;;;;;6160148;23;20025;-71
2024/01/02 01:32:28;;;;;;;16.13;10.13;;;;;;;;;;6184747;23;20040;-72
2024/01/02 01:34:56;;;;;;;16.63;11.30;;;;;;;;;;6160097;23;20025;-73
2024/01/02 01:37:24;;;;;;;17.10;10.57;;;;;;;;;;6184676;23;20017;-72
2024/01/02 01:39:51;;;;;;;15.38;10.20;;;;;;;;;;6186198;23;20039;-72
2024/01/02 01:42:19;;;;;;;15.80;10.23;;;;;;;;;;6184641;23;20047;-72
2024/01/02 01:44:46;;;;;;;16.30;10.43;;;;;;;;;;6160131;23;20099;-72
2024/01/02 01:47:14;;;;;;;15.52;9.88;;;;;;;;;;6186006;23;20021;-72
2024/01/02 01:49:42;;;;;;;14.65;9.35;;;;;;;;;;6184478;23;20025;-72
2024/01/02 01:52:10;;;;;;;15.57;10.05;;;;;;;;;;6184464;23;20021;-72
2024/01/02 01:54:38;;;;;;;14.38;9.52;;;;;;;;;;6184198;23;20031;-73
2024/01/02 01:57:06;;;;;;;13.85;9.52;;;;;;;;;;6184474;23;20017;-72
2024/01/02 01:59:33;;;;;;;13.75;9.15;;;;;;;;;;6184700;23;20413;-73
2024/01/02 02:02:01;;;;;;;15.75;9.15;;;;;;;;;;6184406;23;20021;-72
2024/01/02 02:04:29;;;;;;;13.40;8.98;;;;;;;;;;6184449;23;20025;-72
2024/01/02 02:06:57;;;;;;;12.27;8.75;;;;;;;;;;6184301;23;20076;-72
2024/01/02 02:09:24;;;;;;;13.50;9.55;;;;;;;;;;6159753;23;20060;-72
2024/01/02 02:11:52;;;;;;;11.70;8.32;;;;;;;;;;6184368;23;20099;-72
2024/01/02 02:14:20;;;;;;;13.55;8.32;;;;;;;;;;6184219;23;20060;-72
2024/01/02 02:16:50;;;;;;;11.60;7.78;;;;;;;;;;6184411;23;20352;-72
2024/01/02 02:19:17;;;;;;;12.10;8.40;;;;;;;;;;6184432;23;20021;-71
2024/01/02 02:21:47;;;;;;;11.23;7.72;;;;;;;;;;6184424;23;20041;-71
2024/01/02 02:24:15;;;;;;;12.35;8.25;;;;;;;;;;6184447;23;20075;-72
2024/01/02 02:26:42;;;;;;;10.75;7.25;;;;;;;;;;6184046;23;20100;-72
2024/01/02 02:29:10;;;;;;;10.75;7.63;;;;;;;;;;6183717;23;20138;-72
2024/01/02 02:31:38;;;;;;;10.35;7.22;;;;;;;;;;6184417;23;20047;-72
2024/01/02 02:34:05;;;;;;;13.25;7.68;;;;;;;;;;6185996;23;20018;-72
2024/01/02 02:36:33;;;;;;;12.85;7.70;;;;;;;;;;6184211;23;20124;-72
2024/01/02 02:39:00;;;;;;;10.48;6.70;;;;;;;;;;6184490;23;20021;-72
2024/01/02 02:41:28;;;;;;;9.63;6.88;;;;;;;;;;6185584;23;20017;-72
2024/01/02 02:43:55;;;;;;;9.77;6.95;;;;;;;;;;6159692;23;20021;-72
2024/01/02 02:46:23;;;;;;;9.90;6.65;;;;;;;;;;6183939;23;20084;-72
2024/01/02 02:48:50;;;;;;;9.75;6.45;;;;;;;;;;6184267;23;20095;-72
2024/01/02 02:51:18;;;;;;;9.48;6.63;;;;;;;;;;6185610;23;20017;-72
2024/01/02 02:53:46;;;;;;;9.07;6.50;;;;;;;;;;6183851;23;20396;-72
2024/01/02 02:56:16;;;;;;;10.90;6.65;;;;;;;;;;6183991;23;20332;-72
2024/01/02 02:58:44;;;;;;;8.70;5.85;;;;;;;;;;6185514;23;20076;-72
2024/01/02 03:01:24;;;;;;;8.35;6.30;;;;;;;;;;6185459;23;20432;-72
2024/01/02 03:03:52;;;;;;;12.30;6.50;;;;;;;;;;6183896;23;20025;-72
2024/01/02 03:06:19;;;;;;;9.77;6.82;;;;;;;;;;6185466;23;20017;-72
2024/01/02 03:08:47;;;;;;;9.15;5.88;;;;;;;;;;6185264;23;20017;-72
2024/01/02 03:11:15;;;;;;;8.07;5.32;;;;;;;;;;6185210;23;20395;-72
2024/01/02 03:13:42;;;;;;;8.05;5.75;;;;;;;;;;6183770;23;20027;-71
2024/01/02 03:16:10;;;;;;;11.30;6.25;;;;;;;;;;6185342;23;20013;-71
2024/01/02 03:18:38;;;;;;;9.63;5.20;;;;;;;;;;6185215;23;20017;-71
2024/01/02 03:21:06;;;;;;;8.23;5.43;;;;;;;;;;6185174;23;20025;-72
2024/01/02 03:23:34;;;;;;;7.53;5.65;;;;;;;;;;6185193;23;20084;-72
2024/01/02 03:26:02;;;;;;;8.13;5.47;;;;;;;;;;6183695;23;20064;-72
2024/01/02 03:28:30;;;;;;;7.35;5.10;;;;;;;;;;6185150;23;20021;-72
2024/01/02 03:30:58;;;;;;;8.95;5.82;;;;;;;;;;6185479;23;20147;-72
2024/01/02 03:33:27;;;;;;;9.80;5.60;;;;;;;;;;6185074;23;20039;-72
2024/01/02 03:35:55;;;;;;;7.75;5.32;;;;;;;;;;6185128;23;20039;-72
2024/01/02 03:38:22;;;;;;;8.95;5.50;;;;;;;;;;6184866;23;20027;-72
2024/01/02 03:40:50;;;;;;;8.27;5.07;;;;;;;;;;6184942;23;20092;-72
2024/01/02 03:43:17;;;;;;;7.60;4.88;;;;;;;;;;6184863;23;20017;-72
2024/01/02 03:45:45;;;;;;;7.78;5.13;;;;;;;;;;6185076;23;20071;-72
2024/01/02 03:48:12;;;;;;;7.60;5.00;;;;;;;;;;6185067;23;20451;-72
2024/01/02 03:50:40;;;;;;;7.82;5.05;;;;;;;;;;6184916;23;20017;-72
2024/01/02 03:53:08;;;;;;;7.65;4.93;;;;;;;;;;6184934;23;20013;-72
2024/01/02 03:55:36;;;;;;;7.50;5.35;;;;;;;;;;6183220;23;20032;-72
2024/01/02 03:58:04;;;;;;;9.15;5.22;;;;;;;;;;6185492;23;20442;-72
2024/01/02 04:00:33;;;;;;;7.80;5.53;;;;;;;;;;6185206;23;20021;-72
2024/01/02 04:03:01;;;;;;;11.20;4.75;;;;;;;;;;6184852;23;20040;-72
2024/01/02 04:05:29;;;;;;;7.47;5.10;;;;;;;;;;6185053;23;20025;-72
2024/01/02 04:07:56;;;;;;;8.65;5.15;;;;;;;;;;6184820;23;20013;-72
2024/01/02 04:10:24;;;;;;;7.78;5.15;;;;;;;;;;6184841;23;20024;-72
2024/01/02 04:12:51;;;;;;;7.45;5.28;;;;;;;;;;6183325;23;20313;-72
2024/01/02 04:15:19;;;;;;;8.80;5.60;;;;;;;;;;6184728;23;20018;-72
2024/01/02 04:17:46;;;;;;;6.80;4.78;;;;;;;;;;6184848;23;20033;-72
2024/01/02 04:20:14;;;;;;;8.18;5.10;;;;;;;;;;6184643;23;20120;-72
2024/01/02 04:22:42;;;;;;;8.68;5.30;;;;;;;;;;6184863;23;20036;-72
2024/01/02 04:25:09;;;;;;;11.07;5.10;;;;;;;;;;6184685;23;20406;-72
2024/01/02 04:27:37;;;;;;;7.72;5.28;;;;;;;;;;6184854;23;20063;-72
2024/01/02 04:30:05;;;;;;;8.73;5.22;;;;;;;;;;6184531;23;20347;-72
2024/01/02 04:32:32;;;;;;;10.00;5.53;;;;;;;;;;6183568;23;20068;-72
2024/01/02 04:35:00;;;;;;;9.02;5.13;;;;;;;;;;6184617;23;20028;-72
2024/01/02 04:37:28;;;;;;;7.15;5.40;;;;;;;;;;6184769;23;20021;-72
2024/01/02 04:39:55;;;;;;;7.40;5.40;;;;;;;;;;6185051;23;20024;-72
2024/01/02 04:42:23;;;;;;;7.07;4.90;;;;;;;;;;6184937;23;20013;-72
2024/01/02 04:44:51;;;;;;;6.47;4.72;;;;;;;;;;6184868;23;20032;-72
2024/01/02 04:47:18;;;;;;;9.13;5.07;;;;;;;;;;6184717;23;20013;-72
2024/01/02 04:49:46;;;;;;;7.78;5.18;;;;;;;;;;6184448;23;20024;-72
2024/01/02 04:52:13;;;;;;;8.30;5.65;;;;;;;;;;6186184;23;20013;-72
2024/01/02 04:54:41;;;;;;;8.15;5.85;;;;;;;;;;6186590;23;20025;-72
2024/01/02 04:57:08;;;;;;;6.97;5.03;;;;;;;;;;6184876;23;20028;-72
2024/01/02 04:59:36;;;;;;;8.55;5.18;;;;;;;;;;6186752;23;20021;-72
2024/01/02 05:02:03;;;;;;;9.73;5.63;;;;;;;;;;6185061;23;20017;-72
2024/01/02 05:04:31;;;;;;;7.50;5.43;;;;;;;;;;6186578;23;20041;-72
2024/01/02 05:06:59;;;;;;;8.07;4.90;;;;;;;;;;6186407;23;20023;-72
2024/01/02 05:09:27;;;;;;;7.88;5.15;;;;;;;;;;6186313;23;20021;-72
2024/01/02 05:11:55;;;;;;;6.95;5.25;;;;;;;;;;6186787;23;20037;-72
2024/01/02 05:14:22;;;;;;;8.88;5.35;;;;;;;;;;6185002;23;20447;-72
2024/01/02 05:16:50;;;;;;;7.05;5.35;;;;;;;;;;6184605;23;20315;-72
2024/01/02 05:19:18;;;;;;;8.55;5.50;;;;;;;;;;6186411;23;20044;-72
2024/01/02 05:21:45;;;;;;;13.27;5.95;;;;;;;;;;6184668;23;20020;-72
2024/01/02 05:24:13;;;;;;;8.82;5.18;;;;;;;;;;6186164;23;20439;-72
2024/01/02 05:26:41;;;;;;;7.82;5.63;;;;;;;;;;6186680;23;20048;-72
2024/01/02 05:29:08;;;;;;;8.65;5.05;;;;;;;;;;6186073;23;20013;-72
2024/01/02 05:31:36;;;;;;;8.18;5.18;;;;;;;;;;6186392;23;20451;-72
2024/01/02 05:34:04;;;;;;;7.65;5.07;;;;;;;;;;6184625;23;20056;-72
2024/01/02 05:36:31;;;;;;;7.53;5.28;;;;;;;;;;6184146;23;20069;-72
2024/01/02 05:38:59;;;;;;;8.02;4.82;;;;;;;;;;6185985;23;20025;-72
2024/01/02 05:41:26;;;;;;;7.10;5.07;;;;;;;;;;6185927;23;20068;-72
2024/01/02 05:43:54;;;;;;;8.20;5.10;;;;;;;;;;6185916;23;20017;-72
2024/01/02 05:46:22;;;;;;;9.43;5.05;;;;;;;;;;6186044;23;20017;-72
2024/01/02 05:48:49;;;;;;;7.07;4.80;;;;;;;;;;6186042;23;20101;-72
2024/01/02 05:51:18;;;;;;;7.78;4.97;;;;;;;;;;6186136;23;20031;-72
2024/01/02 05:53:46;;;;;;;9.45;5.45;;;;;;;;;;6185956;23;20032;-71
2024/01/02 05:56:13;;;;;;;7.88;5.43;;;;;;;;;;6186111;23;20021;-72
2024/01/02 05:58:41;;;;;;;7.03;5.03;;;;;;;;;;6186234;23;20391;-71
2024/01/02 06:01:09;;;;;;;9.25;5.43;;;;;;;;;;6185885;23;20056;-71
2024/01/02 06:03:36;;;;;;;9.30;5.57;;;;;;;;;;6185834;23;20009;-72
2024/01/02 06:06:04;;;;;;;8.55;5.57;;;;;;;;;;6185715;23;20340;-72
2024/01/02 06:08:32;;;;;;;9.13;6.22;;;;;;;;;;6185871;23;20386;-72
2024/01/02 06:11:00;;;;;;;9.20;5.72;;;;;;;;;;6185973;23;20028;-72
2024/01/02 06:13:29;;;;;;;7.97;5.65;;;;;;;;;;6185976;23;20013;-72
2024/01/02 06:15:56;;;;;;;9.13;6.13;;;;;;;;;;6185840;23;20088;-72
2024/01/02 06:18:24;;;;;;;11.27;5.85;;;;;;;;;;6184181;23;20017;-72
2024/01/02 06:20:51;;;;;;;10.48;5.85;;;;;;;;;;6185845;23;20023;-72
2024/01/02 06:23:19;;;;;;;9.18;5.57;;;;;;;;;;6184099;23;20024;-72
2024/01/02 06:25:47;;;;;;;9.05;5.65;;;;;;;;;;6184236;23;20045;-72
2024/01/02 06:28:14;;;;;;;7.53;5.65;;;;;;;;;;6185517;23;20514;-72
2024/01/02 06:30:42;;;;;;;10.82;6.05;;;;;;;;;;6185586;23;20024;-72
2024/01/02 06:33:09;;;;;;;8.35;5.85;;;;;;;;;;6185743;23;20343;-72
2024/01/02 06:35:37;;;;;;;9.95;6.53;;;;;;;;;;6185514;23;20124;-72
2024/01/02 06:38:04;;;;;;;8.90;6.30;;;;;;;;;;6185540;23;20062;-72
2024/01/02 06:40:32;;;;;;;9.38;6.20;;;;;;;;;;6185735;23;20036;-72
2024/01/02 06:43:00;;;;;;;9.32;5.60;;;;;;;;;;6185736;23;20023;-72
2024/01/02 06:45:28;;;;;;;10.88;5.50;;;;;;;;;;6184087;23;20410;-72
2024/01/02 06:47:56;;;;;;;8.95;5.95;;;;;;;;;;6185609;23;20013;-72
2024/01/02 06:50:24;;;;;;;8.25;5.53;;;;;;;;;;6183813;23;20025;-72
2024/01/02 06:52:53;;;;;;;9.20;5.90;;;;;;;;;;6185435;23;20031;-72
2024/01/02 06:55:20;;;;;;;11.25;5.63;;;;;;;;;;6185403;23;20024;-71
2024/01/02 06:57:48;;;;;;;8.65;5.72;;;;;;;;;;6185495;23;20368;-71
2024/01/02 07:00:15;;;;;;;9.38;5.35;;;;;;;;;;6185558;23;20415;-71
2024/01/02 07:02:43;;;;;;;7.63;5.45;;;;;;;;;;6183756;23;20092;-71
2024/01/02 07:05:14;;;;;;;7.95;5.22;;;;;;;;;;6185350;23;20017;-72
2024/01/02 07:07:42;;;;;;;8.75;4.82;;;;;;;;;;6185319;23;20468;-73
2024/01/02 07:10:09;;;;;;;8.18;5.13;;;;;;;;;;6185251;23;20024;-73
2024/01/02 07:12:37;;;;;;;9.32;5.05;;;;;;;;;;6184957;23;20016;-72
2024/01/02 07:15:06;;;;;;;8.50;5.03;;;;;;;;;;6185062;23;20444;-72
2024/01/02 07:17:34;;;;;;;12.25;5.05;;;;;;;;;;6185230;23;20436;-73
2024/01/02 07:20:02;;;;;;;8.77;5.30;;;;;;;;;;6185341;23;20317;-72
2024/01/02 07:22:30;;;;;;;9.18;5.00;;;;;;;;;;6185108;23;20442;-72
2024/01/02 07:24:58;;;;;;;8.57;4.82;;;;;;;;;;6185263;23;20021;-71
2024/01/02 07:27:25;;;;;;;8.75;4.63;;;;;;;;;;6183980;23;20075;-71
2024/01/02 07:29:53;;;;;;;6.88;4.50;;;;;;;;;;6184852;23;20021;-71
2024/01/02 07:32:21;;;;;;;10.52;4.93;;;;;;;;;;6184466;23;20020;-74
2024/01/02 07:34:49;;;;;;;7.60;5.18;;;;;;;;;;6185157;23;20020;-76
2024/01/02 07:37:16;;;;;;;7.82;4.22;;;;;;;;;;6184931;23;20052;-78
2024/01/02 07:39:44;;;;;;;7.55;4.80;;;;;;;;;;6185341;23;20012;-76
2024/01/02 07:42:12;;;;;;;8.52;4.22;;;;;;;;;;6185321;23;20032;-65
2024/01/02 07:44:40;;;;;;;7.70;4.90;;;;;;;;;;6184739;23;20385;-65
2024/01/02 07:47:08;;;;;;;7.60;4.57;;;;;;;;;;6185091;23;20029;-66
2024/01/02 07:49:35;;;;;;;8.20;4.65;;;;;;;;;;6184627;23;20060;-64
2024/01/02 07:52:03;;;;;;;7.47;4.65;;;;;;;;;;6183391;23;20021;-65
2024/01/02 07:54:30;;;;;;;8.13;4.50;;;;;;;;;;6183364;23;20647;-64
2024/01/02 07:56:58;;;;;;;9.70;4.57;;;;;;;;;;6185313;23;20032;-65
2024/01/02 07:59:29;;;;;;;7.43;4.50;;;;;;;;;;6184997;23;20033;-65
2024/01/02 08:01:56;;;;;;;8.00;4.85;;;;;;;;;;6184810;23;20020;-65
2024/01/02 08:04:24;;;;;;;9.68;4.60;;;;;;;;;;6184681;23;20088;-66
2024/01/02 08:06:52;;;;;;;8.07;4.55;;;;;;;;;;6184944;23;20013;-65
2024/01/02 08:09:19;;;;;;;8.15;4.57;;;;;;;;;;6182157;23;20073;-66
2024/01/02 08:11:47;;;;;;;6.72;4.03;;;;;;;;;;6175666;23;20022;-65
2024/01/02 08:14:14;;;;;;;7.28;4.10;;;;;;;;;;6176531;23;20016;-66
2024/01/02 08:16:42;;;;;;;8.15;4.40;;;;;;;;;;6174681;23;20064;-65
2024/01/02 08:19:10;;;;;;;7.50;4.40;;;;;;;;;;6177554;23;20021;-65
2024/01/02 08:21:37;;;;;;;8.13;3.95;;;;;;;;;;6176257;23;20029;-65
2024/01/02 08:24:05;;;;;;;8.13;4.72;;;;;;;;;;6176885;23;20013;-65
2024/01/02 08:26:33;;;;;;;7.35;4.00;;;;;;;;;;6177618;23;20021;-65
2024/01/02 08:29:00;;;;;;;7.55;4.45;;;;;;;;;;6179288;23;20587;-65
2024/01/02 08:31:28;;;;;;;10.00;5.18;;;;;;;;;;6179173;23;20029;-65
2024/01/02 08:33:55;;;;;;;7.95;4.60;;;;;;;;;;6178957;23;20113;-65
2024/01/02 08:36:23;;;;;;;9.02;4.45;;;;;;;;;;6179986;23;20605;-65
2024/01/02 08:38:51;;;;;;;6.78;4.45;;;;;;;;;;6180232;23;20027;-65
2024/01/02 08:41:19;;;;;;;8.65;4.72;;;;;;;;;;6180253;23;20439;-65
2024/01/02 08:43:47;;;;;;;7.50;4.72;;;;;;;;;;6180030;23;20087;-65
2024/01/02 08:46:16;;;;;;;10.93;5.28;;;;;;;;;;6178133;23;20028;-65
2024/01/02 08:48:44;;;;;;;8.77;5.03;;;;;;;;;;6180112;23;20009;-65
2024/01/02 08:51:12;;;;;;;10.43;6.50;;;;;;;;;;6178471;23;20021;-65
2024/01/02 08:53:40;;;;;;;9.45;5.10;;;;;;;;;;6178962;23;20476;-65
2024/01/02 08:56:09;;;;;;;7.75;4.78;;;;;;;;;;6177828;23;20025;-64
2024/01/02 08:58:37;;;;;;;7.72;4.45;;;;;;;;;;6178964;23;20063;-64
2024/01/02 09:01:05;;;;;;;10.00;5.20;;;;;;;;;;6179649;23;20021;-64
2024/01/02 09:03:33;;;;;;;8.45;4.85;;;;;;;;;;6179497;23;20083;-63
2024/01/02 09:06:00;;;;;;;6.82;4.28;;;;;;;;;;6179209;23;20021;-64
2024/01/02 09:08:28;;;;;;;7.55;4.15;;;;;;;;;;6179977;23;20024;-64
2024/01/02 09:10:56;;;;;;;11.88;5.72;;;;;;;;;;6177987;23;20075;-64
2024/01/02 09:13:23;;;;;;;8.38;4.13;;;;;;;;;;6179895;23;20021;-64
2024/01/02 09:15:51;;;;;;;7.80;4.32;;;;;;;;;;6179982;23;20032;-64
2024/01/02 09:18:19;;;;;;;8.60;4.00;;;;;;;;;;6179910;23;20016;-64
2024/01/02 09:20:47;;;;;;;7.07;4.25;;;;;;;;;;6179540;23;20075;-64
2024/01/02 09:23:15;;;;;;;7.53;4.13;;;;;;;;;;6179872;23;20017;-64
2024/01/02 09:25:45;;;;;;;7.28;3.33;;;;;;;;;;6179559;23;20031;-64
2024/01/02 09:28:16;;;;;;;5.63;3.40;;;;;;;;;;6178944;23;20021;-64
2024/01/02 09:30:47;;;;;;;8.02;3.35;;;;;;;;;;6179725;23;20482;-63
2024/01/02 09:33:15;;;;;;;6.35;3.58;;;;;;;;;;6178339;23;20020;-64
2024/01/02 09:35:43;;;;;;;5.78;3.22;;;;;;;;;;6179337;23;20088;-63
2024/01/02 09:38:12;;;;;;;5.25;2.92;;;;;;;;;;6179555;23;20024;-63
2024/01/02 09:40:58;;;;;;;6.60;3.50;;;;;;;;;;6178434;23;20025;-64
2024/01/02 09:43:49;;;;;;;6.80;3.50;;;;;;;;;;6179464;23;20024;-64
2024/01/02 09:46:35;;;;;;;6.70;3.47;;;;;;;;;;6178119;23;20044;-65
2024/01/02 09:49:14;;;;;;;8.18;3.75;;;;;;;;;;6179091;23;20047;-65
2024/01/02 09:51:54;;;;;;;7.13;3.70;;;;;;;;;;6177768;23;20025;-65
2024/01/02 09:54:44;;;;;;;6.60;2.95;;;;;;;;;;6179430;23;20087;-64
2024/01/02 09:57:17;;;;;;;7.75;3.38;;;;;;;;;;6179589;23;20091;-65
2024/01/02 09:59:54;;;;;;;7.70;4.00;;;;;;;;;;6177273;23;20608;-64
2024/01/02 10:02:22;;;;;;;5.68;3.50;;;;;;;;;;6179060;23;20090;-64
2024/01/02 10:05:09;;;;;;;6.35;3.63;;;;;;;;;;6179227;23;20027;-65
2024/01/02 10:07:58;;;;;;;8.50;3.95;;;;;;;;;;6178554;23;20519;-64
2024/01/02 10:10:34;;;;;;;9.90;3.83;;;;;;;;;;6178393;23;20448;-65
2024/01/02 10:13:02;;;;;;;8.52;3.67;;;;;;;;;;6178038;23;20036;-65
2024/01/02 10:15:49;;;;;;;6.78;3.40;;;;;;;;;;6179541;23;20029;-65
2024/01/02 10:18:16;;;;;;;6.97;3.20;;;;;;;;;;6178748;23;20067;-65
2024/01/02 10:21:03;;;;;;;8.93;3.95;;;;;;;;;;6179250;23;20020;-65
2024/01/02 10:23:51;;;;;;;7.32;3.25;;;;;;;;;;6178320;23;20613;-66
2024/01/02 10:26:20;;;;;;;7.30;3.65;;;;;;;;;;6133341;23;20021;-65
2024/01/02 10:28:49;;;;;;;6.07;3.40;;;;;;;;;;6177351;23;20050;-64
2024/01/02 10:31:25;;;;;;;7.32;3.63;;;;;;;;;;6177977;23;20699;-65
2024/01/02 10:34:11;;;;;;;6.45;3.42;;;;;;;;;;6178359;23;20040;-65
2024/01/02 10:36:38;;;;;;;;;;;;;;;;;;6179597;23;20628;-65
2024/01/02 10:39:31;;;;;;;7.72;3.55;;;;;;;;;;6178169;23;20345;-65
2024/01/02 10:43:12;;;;;;;5.70;3.20;;;;;;;;;;6178791;23;20079;-65
2024/01/02 10:46:54;;;;;;;6.35;3.47;;;;;;;;;;6177985;23;20036;-66
2024/01/02 10:50:35;;;;;;;9.23;4.07;;;;;;;;;;6177597;23;20103;-65
2024/01/02 10:53:54;;;;;;;6.18;3.25;;;;;;;;;;6178809;23;20056;-65
2024/01/02 11:03:52;;;;;;;8.82;3.67;;;;;;;;;;6178832;23;20285;-66
2024/01/02 11:06:25;;;;;;;4.75;2.90;;;;;;;;;;6178644;23;20410;-66
2024/01/02 11:08:59;;;;;;;6.68;3.55;;;;;;;;;;6178842;23;20013;-65
2024/01/02 11:11:29;;;;;;;10.27;3.72;;;;;;;;;;6177938;23;20024;-65
2024/01/02 11:13:58;;;;;;;9.00;3.63;;;;;;;;;;6178974;23;20021;-65
2024/01/02 11:16:26;;;;;;;8.85;3.70;;;;;;;;;;6178510;23;20355;-66
2024/01/02 11:18:58;;;;;;;8.98;3.67;;;;;;;;;;6178138;23;20101;-65
2024/01/02 11:21:25;;;;;;;7.63;3.88;;;;;;;;;;6178563;23;20388;-66
2024/01/02 11:23:56;;;;;;;10.40;3.70;;;;;;;;;;6178389;23;20109;-66
2024/01/02 11:26:29;;;;;;;7.30;3.53;;;;;;;;;;6177335;23;20025;-66
2024/01/02 11:29:04;;;;;;;5.88;3.60;;;;;;;;;;6177901;23;20047;-66
2024/01/02 11:31:32;;;;;;;;;;;;;;;;;;6178955;23;20017;-66
2024/01/02 11:34:13;;;;;;;5.80;2.92;;;;;;;;;;6177790;23;19920;-66
2024/01/02 11:37:00;;;;;;;7.22;3.05;;;;;;;;;;6178360;23;20109;-66
2024/01/02 11:39:36;;;;;;;9.88;3.38;;;;;;;;;;6178084;23;20028;-66
2024/01/02 11:42:03;;;;;;;8.68;2.83;;;;;;;;;;6178031;23;20021;-65
2024/01/02 11:44:50;;;;;;;6.43;3.17;;;;;;;;;;6178347;23;20340;-66
2024/01/02 11:47:41;;;;;;;9.02;3.63;;;;;;;;;;6178060;23;20080;-66
2024/01/02 11:50:09;;;;;;;5.90;3.25;;;;;;;;;;6136743;23;20516;-66
2024/01/02 11:52:58;;;;;;;5.32;3.15;;;;;;;;;;6177791;23;20071;-65
2024/01/02 11:55:33;;;;;;;5.93;3.20;;;;;;;;;;6177887;23;20076;-65
2024/01/02 11:58:10;;;;;;;6.10;3.25;;;;;;;;;;6178000;23;20335;-64
2024/01/02 12:00:42;;;;;;;7.28;3.05;;;;;;;;;;6177803;23;20040;-64
2024/01/02 12:03:32;;;;;;;6.07;3.10;;;;;;;;;;6178159;23;20644;-65
2024/01/02 12:06:03;;;;;;;6.70;3.15;;;;;;;;;;6178051;23;20024;-65
2024/01/02 12:08:34;;;;;;;6.78;3.03;;;;;;;;;;6178518;23;20029;-64
2024/01/02 12:11:04;;;;;;;8.68;3.40;;;;;;;;;;6177740;23;20367;-64
2024/01/02 12:13:37;;;;;;;5.53;3.00;;;;;;;;;;6178160;23;20459;-64
2024/01/02 12:16:08;;;;;;;8.05;3.33;;;;;;;;;;6178357;23;20025;-65
2024/01/02 12:18:39;;;;;;;5.90;3.15;;;;;;;;;;6176858;23;20024;-64
2024/01/02 12:21:09;;;;;;;5.35;2.95;;;;;;;;;;6177887;23;20016;-64
2024/01/02 12:23:39;;;;;;;6.60;3.00;;;;;;;;;;6177882;23;20037;-65
2024/01/02 12:26:10;;;;;;;7.13;3.45;;;;;;;;;;6177475;23;20025;-65
2024/01/02 12:28:40;;;;;;;4.63;2.80;;;;;;;;;;6178485;23;20079;-65
2024/01/02 12:31:13;;;;;;;4.60;2.78;;;;;;;;;;6177940;23;20032;-65
2024/01/02 12:33:52;;;;;;;6.85;3.13;;;;;;;;;;6177064;23;20037;-66
2024/01/02 12:36:46;;;;;;;11.20;3.35;;;;;;;;;;6177243;23;20071;-66
2024/01/02 12:39:17;;;;;;;5.82;2.83;;;;;;;;;;6176414;23;20471;-66
2024/01/02 12:41:50;;;;;;;6.18;3.20;;;;;;;;;;6178055;23;20044;-66
2024/01/02 12:44:23;;;;;;;5.20;2.90;;;;;;;;;;6178233;23;20367;-66
2024/01/02 12:46:52;;;;;;;5.93;2.88;;;;;;;;;;6177088;23;20104;-66
2024/01/02 12:49:23;;;;;;;5.43;2.88;;;;;;;;;;6178085;23;20021;-66
2024/01/02 12:51:56;;;;;;;8.02;2.80;;;;;;;;;;6177321;23;20077;-65
2024/01/02 12:54:24;;;;;;;5.57;2.70;;;;;;;;;;6177993;23;20039;-66
2024/01/02 12:56:54;;;;;;;4.80;2.55;;;;;;;;;;6176324;23;20031;-65
2024/01/02 12:59:27;;;;;;;5.93;2.90;;;;;;;;;;6177955;23;20040;-64
2024/01/02 13:01:55;;;;;;;8.60;3.05;;;;;;;;;;6177989;23;20337;-65
2024/01/02 13:04:22;;;;;;;5.45;2.80;;;;;;;;;;6178077;23;20096;-65
2024/01/02 13:06:50;;;;;;;4.97;2.58;;;;;;;;;;6176442;23;20556;-65
2024/01/02 13:09:19;;;;;;;5.22;2.58;;;;;;;;;;6178090;23;20068;-66
2024/01/02 13:11:47;;;;;;;5.85;2.45;;;;;;;;;;6177565;23;20025;-66
2024/01/02 13:14:16;;;;;;;10.43;2.85;;;;;;;;;;6179757;23;20017;-66
2024/01/02 13:16:46;;;;;;;4.20;2.20;;;;;;;;;;6180017;23;20084;-67
2024/01/02 13:19:15;;;;;;;5.63;2.38;;;;;;;;;;6180065;23;20608;-66
2024/01/02 13:21:43;;;;;;;6.55;2.92;;;;;;;;;;6177895;23;20094;-66
2024/01/02 13:24:11;;;;;;;6.68;3.25;;;;;;;;;;6179998;23;20047;-66
2024/01/02 13:26:43;;;;;;;4.28;2.85;;;;;;;;;;6179994;23;20021;-66
2024/01/02 13:29:12;;;;;;;8.88;2.80;;;;;;;;;;6179746;23;20037;-66
2024/01/02 13:31:40;;;;;;;6.30;2.95;;;;;;;;;;6179706;23;20605;-64
2024/01/02 13:34:08;;;;;;;4.45;2.90;;;;;;;;;;6179276;23;20041;-64
2024/01/02 13:36:46;;;;;;;6.13;2.90;;;;;;;;;;6179839;23;20025;-65
2024/01/02 13:39:33;;;;;;;7.57;3.00;;;;;;;;;;6179765;23;20088;-66
2024/01/02 13:42:03;;;;;;;6.45;2.88;;;;;;;;;;6179859;23;20088;-66
2024/01/02 13:44:38;;;;;;;7.63;3.03;;;;;;;;;;6179753;23;20023;-65
2024/01/02 13:47:06;;;;;;;8.40;3.10;;;;;;;;;;6179255;23;20021;-66
2024/01/02 13:49:47;;;;;;;5.97;3.25;;;;;;;;;;6179519;23;20012;-65
2024/01/02 13:52:25;;;;;;;5.50;2.95;;;;;;;;;;6179435;23;20043;-64
2024/01/02 13:54:53;;;;;;;6.50;3.20;;;;;;;;;;6179454;23;20470;-64
2024/01/02 13:57:27;;;;;;;5.75;2.45;;;;;;;;;;6179372;23;20079;-65
2024/01/02 13:59:59;;;;;;;6.57;3.00;;;;;;;;;;6178999;23;20017;-65
2024/01/02 14:02:27;;;;;;;7.80;2.72;;;;;;;;;;6178055;23;20447;-65
2024/01/02 14:05:03;;;;;;;4.47;2.60;;;;;;;;;;6179589;23;20017;-65
2024/01/02 14:07:32;;;;;;;6.13;2.53;;;;;;;;;;6179185;23;20021;-64
2024/01/02 14:10:00;;;;;;;6.25;2.67;;;;;;;;;;6178942;23;20025;-66
2024/01/02 14:12:38;;;;;;;5.95;2.53;;;;;;;;;;6179295;23;20124;-65
2024/01/02 14:15:06;;;;;;;6.65;2.70;;;;;;;;;;6179607;23;20325;-65
2024/01/02 14:17:38;;;;;;;7.63;3.17;;;;;;;;;;6179229;23;20569;-65
2024/01/02 14:20:07;;;;;;;5.93;2.60;;;;;;;;;;6178934;23;20019;-65
2024/01/02 14:22:42;;;;;;;8.93;2.83;;;;;;;;;;6178885;23;20096;-65
2024/01/02 14:25:25;;;;;;;5.10;2.50;;;;;;;;;;6179114;23;20029;-65
2024/01/02 14:28:03;;;;;;;5.03;2.60;;;;;;;;;;6178964;23;20755;-65
2024/01/02 14:30:38;;;;;;;4.80;2.58;;;;;;;;;;6179117;23;20051;-65
2024/01/02 14:33:17;;;;;;;6.40;2.83;;;;;;;;;;6179184;23;20031;-65
2024/01/02 14:36:04;;;;;;;4.57;2.40;;;;;;;;;;6178650;23;20075;-65
2024/01/02 14:38:37;;;;;;;4.78;2.38;;;;;;;;;;6179083;23;20032;-65
2024/01/02 14:41:14;;;;;;;7.18;2.55;;;;;;;;;;6179039;23;20491;-65
2024/01/02 14:43:54;;;;;;;4.45;2.13;;;;;;;;;;6177438;23;20021;-65
2024/01/02 14:46:22;;;;;;;6.15;2.30;;;;;;;;;;6178387;23;20380;-67
2024/01/02 14:49:08;;;;;;;5.70;2.30;;;;;;;;;;6182683;23;20027;-65
2024/01/02 14:51:44;;;;;;;5.00;2.35;;;;;;;;;;6183907;23;20017;-64
2024/01/02 14:54:17;;;;;;;7.10;2.78;;;;;;;;;;6184837;23;20478;-65
2024/01/02 14:57:09;;;;;;;5.68;2.83;;;;;;;;;;6185480;23;20017;-63
2024/01/02 14:59:55;;;;;;;6.03;3.03;;;;;;;;;;6185412;23;20455;-64
2024/01/02 15:02:22;;;;;;;;;;;;;;;;;;6185777;23;20017;-64
2024/01/02 15:05:09;;;;;;;5.07;2.95;;;;;;;;;;6185276;23;19994;-65
2024/01/02 15:07:55;;;;;;;5.78;2.88;;;;;;;;;;6184153;23;20028;-65